createdAt,value
2023-02-26T00:02:14.742Z,1.17
2023-02-26T00:04:43.604Z,1.50
2023-02-26T00:07:13.070Z,2.07
2023-02-26T00:09:41.217Z,1.60
2023-02-26T00:12:12.429Z,1.93
2023-02-26T00:14:41.665Z,1.83
2023-02-26T00:17:27.620Z,2.10
2023-02-26T00:19:57.674Z,1.47
2023-02-26T00:22:27.830Z,1.77
2023-02-26T00:24:55.941Z,2.00
2023-02-26T00:27:24.151Z,2.20
2023-02-26T00:29:52.812Z,1.47
2023-02-26T00:32:21.494Z,1.93
2023-02-26T00:34:50.485Z,1.50
2023-02-26T00:37:29.910Z,1.73
2023-02-26T00:40:16.841Z,1.63
2023-02-26T00:42:45.514Z,1.87
2023-02-26T00:45:14.885Z,1.90
2023-02-26T00:47:49.877Z,1.63
2023-02-26T00:50:20.451Z,1.80
2023-02-26T00:53:03.240Z,1.47
2023-02-26T00:55:31.964Z,1.97
2023-02-26T00:58:00.032Z,1.73
2023-02-26T01:00:28.555Z,1.40
2023-02-26T01:02:57.134Z,1.60
2023-02-26T01:05:26.062Z,1.97
2023-02-26T01:08:03.324Z,1.53
2023-02-26T01:10:32.389Z,1.70
2023-02-26T01:13:01.200Z,1.67
2023-02-26T01:15:29.985Z,1.40
2023-02-26T01:18:03.845Z,1.83
2023-02-26T01:20:37.923Z,1.27
2023-02-26T01:23:12.114Z,1.87
2023-02-26T01:25:44.756Z,1.37
2023-02-26T01:28:13.326Z,1.27
2023-02-26T01:30:42.002Z,1.50
2023-02-26T01:33:15.943Z,0.70
2023-02-26T01:35:47.376Z,1.10
2023-02-26T01:38:25.850Z,1.37
2023-02-26T01:41:19.752Z,1.50
2023-02-26T01:43:57.743Z,1.00
2023-02-26T01:46:34.919Z,1.20
2023-02-26T01:49:04.057Z,0.90
2023-02-26T01:51:48.389Z,0.60
2023-02-26T01:54:20.800Z,0.90
2023-02-26T01:56:53.837Z,1.20
2023-02-26T01:59:24.756Z,1.00
2023-02-26T02:01:55.334Z,1.13
2023-02-26T02:04:25.244Z,1.70
2023-02-26T02:06:54.526Z,0.83
2023-02-26T02:09:23.997Z,1.10
2023-02-26T02:12:07.767Z,0.77
2023-02-26T02:14:47.371Z,0.80
2023-02-26T02:17:21.127Z,1.17
2023-02-26T02:20:06.345Z,1.13
2023-02-26T02:22:51.205Z,0.87
2023-02-26T02:25:39.414Z,1.03
2023-02-26T02:28:22.108Z,0.87
2023-02-26T02:31:07.008Z,1.20
2023-02-26T02:33:40.893Z,1.13
2023-02-26T02:36:15.855Z,1.37
2023-02-26T02:38:48.789Z,0.90
2023-02-26T02:41:21.267Z,1.10
2023-02-26T02:43:51.581Z,1.10
2023-02-26T02:46:26.989Z,0.73
2023-02-26T02:49:01.128Z,0.70
2023-02-26T02:51:32.815Z,1.03
2023-02-26T02:54:07.077Z,0.80
2023-02-26T02:56:39.802Z,1.33
2023-02-26T02:59:22.724Z,1.20
2023-02-26T03:07:13.337Z,1.53
2023-02-26T03:09:41.797Z,1.03
2023-02-26T03:12:09.939Z,1.37
2023-02-26T03:14:38.674Z,1.07
2023-02-26T03:17:27.410Z,1.30
2023-02-26T03:20:10.207Z,0.87
2023-02-26T03:22:46.035Z,1.33
2023-02-26T03:25:18.580Z,1.50
2023-02-26T03:27:51.586Z,1.33
2023-02-26T03:30:23.634Z,1.13
2023-02-26T03:32:57.870Z,1.03
2023-02-26T03:35:34.659Z,0.93
2023-02-26T03:38:09.080Z,0.97
2023-02-26T03:40:42.626Z,1.23
2023-02-26T03:43:21.900Z,0.87
2023-02-26T03:45:53.783Z,0.93
2023-02-26T03:48:27.581Z,1.03
2023-02-26T03:51:00.736Z,1.20
2023-02-26T03:53:33.263Z,0.93
2023-02-26T03:56:08.394Z,1.10
2023-02-26T03:58:36.752Z,1.20
2023-02-26T04:01:07.394Z,0.87
2023-02-26T04:03:41.317Z,1.00
2023-02-26T04:06:10.018Z,1.00
2023-02-26T04:08:39.613Z,0.67
2023-02-26T04:11:11.078Z,0.70
2023-02-26T04:13:39.195Z,0.70
2023-02-26T04:16:08.050Z,1.00
2023-02-26T04:18:36.184Z,1.17
2023-02-26T04:21:04.641Z,0.50
2023-02-26T04:23:32.844Z,1.17
2023-02-26T04:26:02.365Z,0.90
2023-02-26T04:28:30.675Z,0.80
2023-02-26T04:30:58.886Z,1.50
2023-02-26T04:33:27.329Z,0.60
2023-02-26T04:35:55.435Z,1.30
2023-02-26T04:38:23.563Z,0.90
2023-02-26T04:40:52.348Z,1.00
2023-02-26T04:43:22.054Z,0.63
2023-02-26T04:45:50.733Z,0.97
2023-02-26T04:48:19.414Z,0.87
2023-02-26T04:50:48.339Z,0.70
2023-02-26T04:53:16.634Z,0.77
2023-02-26T04:55:44.831Z,0.67
2023-02-26T04:58:12.988Z,1.20
2023-02-26T05:00:42.572Z,1.17
2023-02-26T05:03:11.185Z,0.80
2023-02-26T05:05:39.386Z,1.10
2023-02-26T05:08:07.532Z,0.80
2023-02-26T05:10:35.839Z,0.60
2023-02-26T05:13:04.217Z,0.80
2023-02-26T05:15:32.597Z,0.97
2023-02-26T05:18:02.081Z,1.03
2023-02-26T05:20:30.291Z,0.43
2023-02-26T05:22:58.477Z,0.87
2023-02-26T05:25:26.669Z,0.50
2023-02-26T05:27:55.825Z,0.33
2023-02-26T05:30:24.396Z,0.83
2023-02-26T05:32:52.549Z,0.70
2023-02-26T05:35:22.169Z,0.80
2023-02-26T05:37:50.310Z,0.70
2023-02-26T05:40:18.684Z,0.70
2023-02-26T05:42:46.819Z,0.50
2023-02-26T05:45:14.977Z,0.67
2023-02-26T05:47:43.092Z,1.10
2023-02-26T05:50:12.772Z,0.73
2023-02-26T05:52:42.270Z,1.03
2023-02-26T05:55:11.367Z,0.80
2023-02-26T05:57:39.578Z,0.70
2023-02-26T06:00:09.545Z,0.80
2023-02-26T06:02:37.690Z,0.60
2023-02-26T06:05:06.863Z,0.70
2023-02-26T06:07:35.057Z,0.80
2023-02-26T06:10:04.748Z,0.93
2023-02-26T06:12:32.918Z,0.87
2023-02-26T06:15:01.377Z,1.00
2023-02-26T06:17:29.509Z,0.50
2023-02-26T06:19:57.606Z,1.03
2023-02-26T06:22:25.716Z,0.70
2023-02-26T06:24:55.137Z,0.43
2023-02-26T06:27:24.958Z,1.03
2023-02-26T06:29:53.078Z,0.23
2023-02-26T06:32:21.287Z,0.60
2023-02-26T06:34:49.488Z,0.70
2023-02-26T06:37:17.640Z,0.63
2023-02-26T06:39:46.148Z,0.57
2023-02-26T06:42:14.264Z,0.80
2023-02-26T06:44:43.808Z,0.77
2023-02-26T06:47:11.958Z,0.60
2023-02-26T06:49:40.037Z,0.70
2023-02-26T06:52:08.148Z,0.60
2023-02-26T06:54:36.308Z,0.70
2023-02-26T06:57:04.537Z,0.50
2023-02-26T06:59:32.629Z,0.60
2023-02-26T07:02:02.203Z,0.67
2023-02-26T07:04:30.336Z,0.60
2023-02-26T07:06:58.879Z,0.93
2023-02-26T07:09:28.235Z,0.97
2023-02-26T07:11:56.368Z,0.50
2023-02-26T07:14:24.755Z,1.03
2023-02-26T07:16:52.796Z,0.80
2023-02-26T07:19:22.488Z,0.60
2023-02-26T07:21:50.610Z,0.63
2023-02-26T07:24:18.801Z,1.03
2023-02-26T07:26:46.919Z,0.67
2023-02-26T07:29:15.025Z,0.43
2023-02-26T07:31:43.520Z,0.53
2023-02-26T07:34:11.699Z,0.63
2023-02-26T07:36:41.157Z,0.77
2023-02-26T07:39:09.261Z,0.70
2023-02-26T07:41:37.352Z,0.50
2023-02-26T07:44:05.462Z,0.80
2023-02-26T07:46:34.295Z,0.50
2023-02-26T07:49:02.511Z,0.50
2023-02-26T07:51:32.520Z,1.00
2023-02-26T07:54:02.720Z,0.60
2023-02-26T07:56:31.861Z,0.37
2023-02-26T07:59:00.029Z,0.83
2023-02-26T08:01:28.221Z,0.40
2023-02-26T08:03:56.317Z,1.27
2023-02-26T08:06:24.691Z,0.70
2023-02-26T08:08:52.993Z,0.80
2023-02-26T08:11:22.493Z,0.60
2023-02-26T08:13:50.701Z,1.20
2023-02-26T08:16:18.859Z,0.50
2023-02-26T08:18:46.943Z,0.30
2023-02-26T08:21:15.120Z,0.70
2023-02-26T08:23:43.237Z,0.70
2023-02-26T08:26:13.593Z,0.60
2023-02-26T08:28:43.087Z,0.40
2023-02-26T08:31:11.502Z,0.50
2023-02-26T08:33:39.665Z,0.97
2023-02-26T08:36:09.145Z,0.63
2023-02-26T08:38:37.312Z,0.70
2023-02-26T08:41:05.852Z,0.53
2023-02-26T08:43:34.028Z,0.67
2023-02-26T08:46:03.489Z,0.70
2023-02-26T08:48:31.810Z,0.50
2023-02-26T08:51:07.447Z,0.63
2023-02-26T08:53:35.616Z,0.50
2023-02-26T08:56:03.745Z,0.50
2023-02-26T08:58:32.271Z,0.40
2023-02-26T09:01:00.445Z,0.70
2023-02-26T09:03:30.006Z,0.93
2023-02-26T09:05:58.124Z,0.70
2023-02-26T09:08:26.513Z,0.87
2023-02-26T09:10:54.610Z,0.60
2023-02-26T09:13:22.745Z,0.47
2023-02-26T09:15:51.337Z,0.53
2023-02-26T09:18:19.509Z,0.73
2023-02-26T09:20:49.013Z,0.70
2023-02-26T09:23:17.213Z,0.77
2023-02-26T09:25:45.359Z,0.67
2023-02-26T09:28:13.556Z,0.50
2023-02-26T09:30:42.143Z,0.73
2023-02-26T09:33:10.506Z,0.50
2023-02-26T09:35:38.696Z,0.80
2023-02-26T09:38:08.308Z,1.03
2023-02-26T09:40:46.164Z,0.60
2023-02-26T09:43:40.644Z,0.63
2023-02-26T09:46:22.389Z,0.40
2023-02-26T09:48:53.094Z,0.57
2023-02-26T09:51:25.084Z,0.70
2023-02-26T09:53:55.222Z,0.60
2023-02-26T09:56:26.311Z,0.77
2023-02-26T09:58:55.656Z,0.90
2023-02-26T10:01:30.034Z,0.60
2023-02-26T10:04:15.804Z,0.60
2023-02-26T10:06:52.226Z,0.40
2023-02-26T10:09:34.659Z,0.63
2023-02-26T10:12:06.213Z,1.03
2023-02-26T10:14:38.678Z,0.37
2023-02-26T10:17:16.038Z,0.60
2023-02-26T10:19:48.500Z,0.50
2023-02-26T10:22:23.061Z,0.60
2023-02-26T10:24:58.004Z,0.67
2023-02-26T10:27:38.411Z,0.50
2023-02-26T10:30:12.705Z,0.40
2023-02-26T10:32:51.075Z,0.30
2023-02-26T10:35:21.378Z,0.30
2023-02-26T10:37:54.616Z,0.30
2023-02-26T10:40:29.287Z,0.43
2023-02-26T10:43:00.984Z,0.33
2023-02-26T10:45:38.264Z,0.40
2023-02-26T10:48:18.657Z,0.40
2023-02-26T10:50:51.681Z,0.30
2023-02-26T10:53:21.118Z,0.40
2023-02-26T10:55:55.135Z,0.43
2023-02-26T10:58:26.003Z,0.43
2023-02-26T11:00:56.658Z,0.37
2023-02-26T11:03:32.889Z,0.57
2023-02-26T11:06:03.806Z,0.20
2023-02-26T11:08:35.132Z,0.50
2023-02-26T11:11:06.407Z,0.40
2023-02-26T11:13:37.678Z,0.50
2023-02-26T11:16:10.246Z,0.60
2023-02-26T11:18:42.310Z,0.67
2023-02-26T11:21:17.696Z,0.57
2023-02-26T11:23:48.197Z,0.60
2023-02-26T11:26:19.924Z,0.30
2023-02-26T11:28:50.067Z,0.30
2023-02-26T11:31:20.375Z,0.53
2023-02-26T11:33:51.708Z,0.20
2023-02-26T11:36:21.942Z,0.40
2023-02-26T11:38:57.217Z,0.30
2023-02-26T11:41:29.146Z,1.20
2023-02-26T11:44:02.403Z,1.07
2023-02-26T11:46:30.887Z,0.40
2023-02-26T11:49:02.315Z,0.57
2023-02-26T11:51:31.115Z,0.40
2023-02-26T11:54:01.669Z,0.43
2023-02-26T11:56:36.813Z,0.23
2023-02-26T11:59:09.266Z,0.60
2023-02-26T12:01:39.717Z,0.50
2023-02-26T12:04:12.257Z,0.30
2023-02-26T12:06:40.435Z,0.33
2023-02-26T12:09:13.603Z,0.90
2023-02-26T12:12:12.466Z,0.20
2023-02-26T12:15:04.400Z,0.30
2023-02-26T12:17:45.559Z,0.50
2023-02-26T12:20:21.322Z,0.60
2023-02-26T12:23:07.062Z,0.70
2023-02-26T12:25:58.474Z,0.70
2023-02-26T12:28:59.217Z,0.40
2023-02-26T12:32:10.126Z,0.50
2023-02-26T12:35:16.796Z,0.30
2023-02-26T12:37:53.385Z,0.50
2023-02-26T12:40:47.332Z,0.30
2023-02-26T12:43:26.234Z,0.40
2023-02-26T12:46:02.507Z,0.77
2023-02-26T12:49:04.295Z,0.27
2023-02-26T12:51:49.267Z,0.50
2023-02-26T12:54:40.612Z,1.03
2023-02-26T12:57:48.684Z,0.63
2023-02-26T13:00:46.578Z,0.47
2023-02-26T13:03:51.630Z,0.73
2023-02-26T13:06:46.641Z,0.40
2023-02-26T13:09:26.214Z,0.50
2023-02-26T13:12:09.713Z,0.43
2023-02-26T13:14:49.580Z,0.57
2023-02-26T13:17:26.925Z,0.43
2023-02-26T13:20:00.004Z,0.67
2023-02-26T13:22:32.146Z,0.40
2023-02-26T13:25:04.646Z,0.50
2023-02-26T13:27:35.645Z,0.60
2023-02-26T13:30:19.514Z,0.30
2023-02-26T13:32:50.200Z,0.43
2023-02-26T13:35:23.301Z,0.70
2023-02-26T13:37:54.490Z,0.40
2023-02-26T13:40:50.519Z,0.80
2023-02-26T13:43:32.908Z,0.50
2023-02-26T13:46:13.640Z,0.50
2023-02-26T13:48:46.879Z,0.60
2023-02-26T13:51:32.135Z,0.70
2023-02-26T13:54:04.435Z,0.37
2023-02-26T13:56:50.228Z,0.53
2023-02-26T13:59:36.558Z,0.50
2023-02-26T14:02:43.132Z,1.00
2023-02-26T14:05:37.217Z,0.50
2023-02-26T14:08:26.675Z,0.50
2023-02-26T14:11:06.776Z,0.30
2023-02-26T14:13:37.393Z,0.50
2023-02-26T14:16:13.610Z,0.60
2023-02-26T14:18:52.635Z,0.40
2023-02-26T14:21:48.172Z,0.47
2023-02-26T14:24:21.521Z,0.43
2023-02-26T14:26:51.933Z,0.50
2023-02-26T14:29:37.299Z,0.73
2023-02-26T14:32:16.985Z,0.60
2023-02-26T14:34:51.951Z,0.67
2023-02-26T14:37:23.966Z,0.67
2023-02-26T14:39:59.104Z,0.50
2023-02-26T14:42:34.536Z,0.30
2023-02-26T14:45:11.629Z,0.53
2023-02-26T14:47:40.045Z,0.50
2023-02-26T14:50:09.282Z,0.40
2023-02-26T14:52:51.225Z,0.70
2023-02-26T14:55:45.418Z,0.60
2023-02-26T14:58:30.870Z,0.50
2023-02-26T15:01:19.514Z,0.33
2023-02-26T15:04:13.029Z,1.13
2023-02-26T15:06:52.877Z,0.30
2023-02-26T15:09:28.537Z,0.57
2023-02-26T15:12:13.710Z,0.50
2023-02-26T15:15:00.905Z,0.50
2023-02-26T15:17:42.272Z,0.60
2023-02-26T15:20:21.135Z,0.50
2023-02-26T15:23:07.843Z,0.57
2023-02-26T15:25:39.311Z,0.47
2023-02-26T15:28:16.208Z,0.37
2023-02-26T15:30:48.725Z,0.40
2023-02-26T15:33:20.440Z,0.30
2023-02-26T15:35:51.948Z,0.33
2023-02-26T15:38:20.529Z,0.47
2023-02-26T15:40:51.114Z,0.30
2023-02-26T15:43:25.039Z,0.30
2023-02-26T15:45:55.655Z,0.60
2023-02-26T15:48:29.356Z,0.70
2023-02-26T15:51:01.106Z,0.40
2023-02-26T15:53:33.027Z,0.33
2023-02-26T15:56:05.655Z,0.30
2023-02-26T15:58:40.899Z,0.60
2023-02-26T16:01:09.830Z,0.60
2023-02-26T16:03:39.639Z,0.20
2023-02-26T16:06:12.454Z,0.40
2023-02-26T16:08:40.769Z,0.40
2023-02-26T16:11:09.648Z,0.40
2023-02-26T16:13:43.404Z,0.53
2023-02-26T16:16:16.539Z,0.60
2023-02-26T16:18:47.168Z,0.63
2023-02-26T16:21:30.223Z,0.40
2023-02-26T16:23:59.891Z,0.20
2023-02-26T16:26:31.524Z,0.63
2023-02-26T16:29:05.487Z,0.60
2023-02-26T16:31:37.093Z,0.40
2023-02-26T16:34:08.788Z,0.33
2023-02-26T16:36:41.401Z,0.40
2023-02-26T16:39:18.262Z,0.30
2023-02-26T16:41:49.794Z,0.53
2023-02-26T16:44:51.469Z,0.40
2023-02-26T16:47:21.138Z,0.30
2023-02-26T16:49:49.774Z,0.50
2023-02-26T16:52:21.220Z,0.67
2023-02-26T16:55:04.863Z,0.87
2023-02-26T16:57:37.940Z,0.40
2023-02-26T17:00:17.572Z,0.60
2023-02-26T17:02:49.153Z,0.73
2023-02-26T17:05:24.815Z,0.63
2023-02-26T17:07:58.363Z,0.60
2023-02-26T17:10:34.143Z,0.60
2023-02-26T17:13:14.608Z,0.83
2023-02-26T17:15:46.487Z,0.80
2023-02-26T17:18:14.967Z,0.50
2023-02-26T17:20:43.187Z,0.97
2023-02-26T17:23:15.301Z,0.80
2023-02-26T17:25:46.321Z,0.97
2023-02-26T17:28:18.916Z,0.60
2023-02-26T17:30:48.508Z,0.60
2023-02-26T17:33:16.803Z,1.27
2023-02-26T17:35:45.716Z,1.10
2023-02-26T17:38:16.000Z,0.63
2023-02-26T17:40:47.597Z,0.47
2023-02-26T17:43:16.842Z,0.60
2023-02-26T17:45:45.007Z,0.70
2023-02-26T17:48:16.145Z,0.90
2023-02-26T17:50:48.077Z,0.87
2023-02-26T17:53:17.320Z,1.17
2023-02-26T17:55:46.717Z,0.80
2023-02-26T17:58:17.910Z,0.70
2023-02-26T18:00:49.703Z,0.60
2023-02-26T18:03:20.372Z,1.00
2023-02-26T18:05:49.172Z,0.70
2023-02-26T18:08:22.178Z,0.87
2023-02-26T18:10:50.931Z,0.60
2023-02-26T18:13:19.419Z,1.00
2023-02-26T18:15:47.934Z,0.80
2023-02-26T18:18:17.248Z,0.83
2023-02-26T18:20:47.552Z,0.90
2023-02-26T18:23:16.777Z,0.90
2023-02-26T18:25:46.646Z,0.50
2023-02-26T18:28:17.968Z,0.70
2023-02-26T18:30:46.604Z,0.80
2023-02-26T18:33:17.115Z,0.70
2023-02-26T18:35:48.753Z,0.80
2023-02-26T18:38:19.253Z,0.80
2023-02-26T18:40:48.713Z,0.67
2023-02-26T18:43:17.129Z,0.80
2023-02-26T18:45:46.467Z,0.83
2023-02-26T18:48:17.459Z,0.60
2023-02-26T18:50:48.162Z,0.60
2023-02-26T18:53:17.774Z,0.73
2023-02-26T18:55:46.416Z,0.93
2023-02-26T18:58:14.767Z,1.00
2023-02-26T19:00:43.031Z,0.87
2023-02-26T19:03:11.198Z,1.00
2023-02-26T19:05:39.657Z,0.73
2023-02-26T19:08:12.914Z,0.87
2023-02-26T19:10:41.239Z,1.00
2023-02-26T19:13:09.639Z,1.53
2023-02-26T19:15:38.113Z,1.00
2023-02-26T19:18:06.479Z,0.77
2023-02-26T19:20:35.099Z,0.80
2023-02-26T19:23:03.293Z,1.53
2023-02-26T19:25:34.046Z,1.10
2023-02-26T19:28:03.429Z,1.00
2023-02-26T19:30:31.649Z,0.90
2023-02-26T19:33:00.014Z,0.93
2023-02-26T19:35:29.739Z,1.27
2023-02-26T19:37:58.075Z,1.20
2023-02-26T19:40:27.089Z,1.03
2023-02-26T19:42:57.259Z,1.07
2023-02-26T19:45:25.612Z,0.73
2023-02-26T19:47:53.740Z,0.97
2023-02-26T19:50:25.543Z,1.03
2023-02-26T19:52:54.488Z,1.17
2023-02-26T19:55:22.649Z,1.20
2023-02-26T19:57:50.986Z,0.87
2023-02-26T20:00:21.263Z,0.80
2023-02-26T20:02:52.239Z,1.20
2023-02-26T20:05:20.580Z,2.00
2023-02-26T20:07:49.228Z,1.60
2023-02-26T20:10:18.061Z,0.80
2023-02-26T20:12:46.984Z,0.87
2023-02-26T20:15:15.287Z,1.23
2023-02-26T20:17:45.205Z,1.50
2023-02-26T20:20:14.156Z,1.00
2023-02-26T20:22:42.419Z,1.23
2023-02-26T20:25:14.923Z,1.40
2023-02-26T20:27:44.620Z,1.13
2023-02-26T20:30:14.510Z,0.90
2023-02-26T20:32:44.300Z,1.00
2023-02-26T20:35:12.553Z,0.80
2023-02-26T20:37:41.174Z,0.80
2023-02-26T20:40:10.557Z,0.93
2023-02-26T20:42:39.026Z,1.10
2023-02-26T20:45:08.608Z,1.40
2023-02-26T20:47:36.861Z,1.00
2023-02-26T20:50:07.412Z,0.97
2023-02-26T20:52:35.536Z,1.30
2023-02-26T20:55:03.709Z,0.93
2023-02-26T20:57:32.585Z,0.90
2023-02-26T21:00:03.950Z,1.00
2023-02-26T21:02:32.086Z,1.37
2023-02-26T21:05:00.358Z,1.10
2023-02-26T21:07:29.803Z,1.10
2023-02-26T21:09:58.775Z,0.80
2023-02-26T21:12:28.354Z,1.10
2023-02-26T21:14:56.546Z,1.10
2023-02-26T21:17:25.522Z,0.60
2023-02-26T21:19:54.346Z,0.90
2023-02-26T21:22:22.663Z,0.70
2023-02-26T21:24:52.188Z,0.90
2023-02-26T21:27:20.390Z,1.40
2023-02-26T21:29:48.511Z,1.00
2023-02-26T21:32:16.819Z,0.90
2023-02-26T21:34:45.071Z,0.87
2023-02-26T21:37:13.644Z,0.93
2023-02-26T21:39:41.796Z,1.03
2023-02-26T21:42:15.556Z,1.37
2023-02-26T21:44:43.655Z,1.20
2023-02-26T21:47:12.385Z,0.97
2023-02-26T21:49:40.782Z,0.70
2023-02-26T21:52:09.339Z,1.00
2023-02-26T21:54:37.608Z,0.60
2023-02-26T21:57:05.860Z,1.20
2023-02-26T21:59:35.949Z,0.80
2023-02-26T22:02:05.071Z,0.90
2023-02-26T22:04:34.016Z,1.03
2023-02-26T22:07:02.468Z,1.00
2023-02-26T22:09:30.754Z,1.13
2023-02-26T22:11:58.913Z,1.10
2023-02-26T22:14:27.247Z,1.10
2023-02-26T22:16:56.925Z,0.80
2023-02-26T22:19:25.247Z,1.20
2023-02-26T22:21:53.568Z,0.80
2023-02-26T22:24:21.765Z,0.97
2023-02-26T22:26:49.984Z,1.00
2023-02-26T22:29:19.359Z,1.10
2023-02-26T22:31:48.098Z,1.00
2023-02-26T22:34:17.696Z,0.87
2023-02-26T22:36:45.946Z,1.20
2023-02-26T22:39:14.514Z,0.70
2023-02-26T22:41:42.843Z,0.80
2023-02-26T22:44:11.371Z,0.90
2023-02-26T22:46:39.904Z,1.20
2023-02-26T22:49:08.111Z,1.10
2023-02-26T22:51:37.716Z,1.10
2023-02-26T22:54:06.093Z,0.90
2023-02-26T22:56:34.322Z,1.10
2023-02-26T22:59:02.805Z,1.30
2023-02-26T23:01:30.982Z,1.20
2023-02-26T23:03:59.500Z,1.43
2023-02-26T23:06:27.765Z,1.20
2023-02-26T23:08:57.238Z,0.93
2023-02-26T23:11:25.639Z,1.33
2023-02-26T23:13:53.991Z,1.30
2023-02-26T23:16:22.126Z,1.40
2023-02-26T23:18:50.345Z,0.80
2023-02-26T23:21:18.575Z,0.80
2023-02-26T23:23:46.800Z,1.03
2023-02-26T23:26:16.467Z,1.17
2023-02-26T23:28:44.547Z,0.87
2023-02-26T23:31:12.719Z,0.83
2023-02-26T23:33:41.046Z,1.03
2023-02-26T23:36:10.219Z,1.00
2023-02-26T23:38:38.557Z,0.70
2023-02-26T23:41:07.072Z,0.67
2023-02-26T23:43:36.640Z,1.10
2023-02-26T23:46:04.922Z,1.40
2023-02-26T23:48:33.083Z,0.77
2023-02-26T23:51:01.391Z,0.87
2023-02-26T23:53:29.517Z,0.70
2023-02-26T23:55:58.973Z,0.90
2023-02-26T23:58:28.148Z,1.00
